createdAt,value
2023-04-18T00:00:16.690Z,502.00
2023-04-18T00:01:16.728Z,509.00
2023-04-18T00:02:16.840Z,503.00
2023-04-18T00:03:16.947Z,500.00
2023-04-18T00:04:17.156Z,500.00
2023-04-18T00:05:16.884Z,510.00
2023-04-18T00:06:16.895Z,508.00
2023-04-18T00:07:16.880Z,510.00
2023-04-18T00:08:16.928Z,515.00
2023-04-18T00:09:17.041Z,510.00
2023-04-18T00:10:16.965Z,507.00
2023-04-18T00:11:17.001Z,507.00
2023-04-18T00:12:17.037Z,515.00
2023-04-18T00:13:17.069Z,507.00
2023-04-18T00:14:17.120Z,509.00
2023-04-18T00:15:17.114Z,506.00
2023-04-18T00:16:17.193Z,506.00
2023-04-18T00:17:17.190Z,507.00
2023-04-18T00:18:17.253Z,508.00
2023-04-18T00:19:17.273Z,511.00
2023-04-18T00:20:17.289Z,508.00
2023-04-18T00:21:17.331Z,512.00
2023-04-18T00:22:17.346Z,509.00
2023-04-18T00:23:17.379Z,505.00
2023-04-18T00:24:17.443Z,504.00
2023-04-18T00:25:17.452Z,508.00
2023-04-18T00:26:17.473Z,510.00
2023-04-18T00:27:17.505Z,509.00
2023-04-18T00:28:17.529Z,507.00
2023-04-18T00:29:17.616Z,509.00
2023-04-18T00:30:17.591Z,512.00
2023-04-18T00:31:17.710Z,509.00
2023-04-18T00:32:17.669Z,507.00
2023-04-18T00:33:17.691Z,501.00
2023-04-18T00:34:17.743Z,506.00
2023-04-18T00:35:17.777Z,507.00
2023-04-18T00:36:17.774Z,508.00
2023-04-18T00:37:17.805Z,511.00
2023-04-18T00:38:17.868Z,507.00
2023-04-18T00:39:17.895Z,505.00
2023-04-18T00:40:17.920Z,505.00
2023-04-18T00:41:17.947Z,507.00
2023-04-18T00:42:17.946Z,510.00
2023-04-18T00:43:18.037Z,507.00
2023-04-18T00:44:18.661Z,508.00
2023-04-18T00:45:18.051Z,506.00
2023-04-18T00:46:18.154Z,509.00
2023-04-18T00:47:18.128Z,507.00
2023-04-18T00:48:18.156Z,502.00
2023-04-18T00:49:18.193Z,502.00
2023-04-18T00:50:18.182Z,510.00
2023-04-18T00:51:18.222Z,507.00
2023-04-18T00:52:18.251Z,508.00
2023-04-18T00:53:18.290Z,506.00
2023-04-18T00:54:18.406Z,503.00
2023-04-18T00:55:18.340Z,505.00
2023-04-18T00:56:18.374Z,500.00
2023-04-18T00:57:18.379Z,511.00
2023-04-18T00:58:18.424Z,510.00
2023-04-18T00:59:18.485Z,506.00
2023-04-18T01:00:18.501Z,506.00
2023-04-18T01:01:18.529Z,504.00
2023-04-18T01:02:18.616Z,506.00
2023-04-18T01:03:18.661Z,510.00
2023-04-18T01:04:18.983Z,500.00
2023-04-18T01:05:18.673Z,510.00
2023-04-18T01:06:18.667Z,503.00
2023-04-18T01:07:18.690Z,510.00
2023-04-18T01:08:18.714Z,505.00
2023-04-18T01:09:18.777Z,504.00
2023-04-18T01:10:18.807Z,503.00
2023-04-18T01:11:18.874Z,505.00
2023-04-18T01:12:18.851Z,506.00
2023-04-18T01:13:18.866Z,509.00
2023-04-18T01:14:18.929Z,503.00
2023-04-18T01:15:18.954Z,507.00
2023-04-18T01:16:19.043Z,507.00
2023-04-18T01:17:19.047Z,509.00
2023-04-18T01:18:19.065Z,510.00
2023-04-18T01:19:19.103Z,506.00
2023-04-18T01:20:19.096Z,506.00
2023-04-18T01:21:19.122Z,513.00
2023-04-18T01:22:19.145Z,507.00
2023-04-18T01:23:19.196Z,507.00
2023-04-18T01:24:19.211Z,507.00
2023-04-18T01:25:19.285Z,510.00
2023-04-18T01:26:19.283Z,503.00
2023-04-18T01:27:19.295Z,507.00
2023-04-18T01:28:19.352Z,508.00
2023-04-18T01:29:19.412Z,504.00
2023-04-18T01:30:19.406Z,506.00
2023-04-18T01:31:19.451Z,510.00
2023-04-18T01:32:19.447Z,510.00
2023-04-18T01:33:19.487Z,508.00
2023-04-18T01:34:19.552Z,509.00
2023-04-18T01:35:19.543Z,509.00
2023-04-18T01:36:19.587Z,511.00
2023-04-18T01:37:19.603Z,505.00
2023-04-18T01:38:19.689Z,502.00
2023-04-18T01:39:19.682Z,506.00
2023-04-18T01:40:19.709Z,502.00
2023-04-18T01:41:19.734Z,509.00
2023-04-18T01:42:19.792Z,509.00
2023-04-18T01:43:19.824Z,510.00
2023-04-18T01:44:19.845Z,505.00
2023-04-18T01:45:19.848Z,508.00
2023-04-18T01:46:19.912Z,507.00
2023-04-18T01:47:19.923Z,509.00
2023-04-18T01:48:19.933Z,505.00
2023-04-18T01:49:19.963Z,506.00
2023-04-18T01:50:20.035Z,510.00
2023-04-18T01:51:20.021Z,505.00
2023-04-18T01:52:20.046Z,508.00
2023-04-18T01:53:20.074Z,517.00
2023-04-18T01:54:20.136Z,509.00
2023-04-18T01:55:20.190Z,508.00
2023-04-18T01:56:20.189Z,513.00
2023-04-18T01:57:20.203Z,509.00
2023-04-18T01:58:20.245Z,506.00
2023-04-18T01:59:20.296Z,509.00
2023-04-18T02:00:20.364Z,507.00
2023-04-18T02:01:20.526Z,506.00
2023-04-18T02:02:20.562Z,504.00
2023-04-18T02:03:20.570Z,511.00
2023-04-18T02:04:20.463Z,508.00
2023-04-18T02:05:20.471Z,508.00
2023-04-18T02:06:21.192Z,509.00
2023-04-18T02:07:20.549Z,506.00
2023-04-18T02:08:20.558Z,503.00
2023-04-18T02:09:20.605Z,506.00
2023-04-18T02:10:20.636Z,511.00
2023-04-18T02:11:20.705Z,504.00
2023-04-18T02:12:20.718Z,506.00
2023-04-18T02:13:20.713Z,508.00
2023-04-18T02:14:20.752Z,507.00
2023-04-18T02:15:20.792Z,511.00
2023-04-18T02:16:20.843Z,503.00
2023-04-18T02:17:20.836Z,505.00
2023-04-18T02:18:20.870Z,504.00
2023-04-18T02:19:20.909Z,509.00
2023-04-18T02:20:20.947Z,508.00
2023-04-18T02:21:20.978Z,506.00
2023-04-18T02:22:21.007Z,506.00
2023-04-18T02:23:21.034Z,504.00
2023-04-18T02:24:21.095Z,507.00
2023-04-18T02:25:21.110Z,503.00
2023-04-18T02:26:21.116Z,500.00
2023-04-18T02:27:21.151Z,505.00
2023-04-18T02:28:21.195Z,506.00
2023-04-18T02:29:21.250Z,510.00
2023-04-18T02:30:21.317Z,507.00
2023-04-18T02:31:21.397Z,507.00
2023-04-18T02:32:21.364Z,508.00
2023-04-18T02:33:21.363Z,509.00
2023-04-18T02:34:21.383Z,505.00
2023-04-18T02:35:21.408Z,506.00
2023-04-18T02:36:21.513Z,505.00
2023-04-18T02:37:21.463Z,508.00
2023-04-18T02:38:21.480Z,503.00
2023-04-18T02:39:21.516Z,509.00
2023-04-18T02:40:21.551Z,509.00
2023-04-18T02:41:21.597Z,505.00
2023-04-18T02:42:21.624Z,501.00
2023-04-18T02:43:21.678Z,509.00
2023-04-18T02:44:21.727Z,507.00
2023-04-18T02:45:21.740Z,504.00
2023-04-18T02:46:21.856Z,508.00
2023-04-18T02:47:21.792Z,506.00
2023-04-18T02:48:21.970Z,508.00
2023-04-18T02:49:21.843Z,504.00
2023-04-18T02:50:21.889Z,503.00
2023-04-18T02:51:21.963Z,508.00
2023-04-18T02:52:21.933Z,505.00
2023-04-18T02:53:21.969Z,506.00
2023-04-18T02:54:22.048Z,507.00
2023-04-18T02:56:22.073Z,508.00
2023-04-18T02:57:22.093Z,508.00
2023-04-18T02:58:22.155Z,507.00
2023-04-18T02:59:22.175Z,503.00
2023-04-18T03:00:22.192Z,504.00
2023-04-18T03:01:22.292Z,503.00
2023-04-18T03:02:22.382Z,507.00
2023-04-18T03:03:22.341Z,507.00
2023-04-18T03:04:22.376Z,507.00
2023-04-18T03:05:22.375Z,514.00
2023-04-18T03:06:22.377Z,509.00
2023-04-18T03:07:22.401Z,507.00
2023-04-18T03:08:22.420Z,509.00
2023-04-18T03:09:22.464Z,512.00
2023-04-18T03:10:22.510Z,507.00
2023-04-18T03:11:22.547Z,504.00
2023-04-18T03:12:22.578Z,509.00
2023-04-18T03:13:22.618Z,508.00
2023-04-18T03:14:22.658Z,512.00
2023-04-18T03:15:22.664Z,500.00
2023-04-18T03:16:22.842Z,511.00
2023-04-18T03:17:22.742Z,511.00
2023-04-18T03:18:22.776Z,509.00
2023-04-18T03:19:22.802Z,514.00
2023-04-18T03:20:22.862Z,509.00
2023-04-18T03:21:22.942Z,512.00
2023-04-18T03:22:22.915Z,512.00
2023-04-18T03:23:22.925Z,507.00
2023-04-18T03:24:22.979Z,506.00
2023-04-18T03:25:22.995Z,509.00
2023-04-18T03:26:23.068Z,507.00
2023-04-18T03:27:23.082Z,510.00
2023-04-18T03:28:23.105Z,507.00
2023-04-18T03:29:23.252Z,511.00
2023-04-18T03:30:23.188Z,505.00
2023-04-18T03:31:23.227Z,506.00
2023-04-18T03:32:23.248Z,506.00
2023-04-18T03:33:23.245Z,508.00
2023-04-18T03:34:23.319Z,507.00
2023-04-18T03:35:23.322Z,504.00
2023-04-18T03:36:23.356Z,505.00
2023-04-18T03:37:23.372Z,509.00
2023-04-18T03:38:23.405Z,506.00
2023-04-18T03:39:23.456Z,508.00
2023-04-18T03:40:23.477Z,503.00
2023-04-18T03:41:23.502Z,511.00
2023-04-18T03:42:23.523Z,504.00
2023-04-18T03:43:23.608Z,503.00
2023-04-18T03:44:23.653Z,509.00
2023-04-18T03:45:23.674Z,503.00
2023-04-18T03:46:23.694Z,504.00
2023-04-18T03:47:23.689Z,502.00
2023-04-18T03:48:23.733Z,506.00
2023-04-18T03:49:23.747Z,501.00
2023-04-18T03:50:23.812Z,503.00
2023-04-18T03:51:23.841Z,510.00
2023-04-18T03:52:23.900Z,508.00
2023-04-18T03:53:23.871Z,503.00
2023-04-18T03:54:23.949Z,504.00
2023-04-18T03:55:23.978Z,501.00
2023-04-18T03:56:23.996Z,506.00
2023-04-18T03:57:23.994Z,508.00
2023-04-18T03:58:24.031Z,508.00
2023-04-18T03:59:24.092Z,511.00
2023-04-18T04:00:24.145Z,503.00
2023-04-18T04:01:24.129Z,508.00
2023-04-18T04:02:24.316Z,503.00
2023-04-18T04:03:24.349Z,508.00
2023-04-18T04:04:24.292Z,503.00
2023-04-18T04:05:24.257Z,507.00
2023-04-18T04:06:24.345Z,503.00
2023-04-18T04:07:24.326Z,501.00
2023-04-18T04:08:25.890Z,514.00
2023-04-18T04:09:24.562Z,504.00
2023-04-18T04:10:24.598Z,505.00
2023-04-18T04:11:24.618Z,504.00
2023-04-18T04:12:24.644Z,511.00
2023-04-18T04:13:24.684Z,505.00
2023-04-18T04:14:24.758Z,507.00
2023-04-18T04:15:24.767Z,511.00
2023-04-18T04:16:24.858Z,505.00
2023-04-18T04:17:24.871Z,513.00
2023-04-18T04:18:24.855Z,506.00
2023-04-18T04:19:24.879Z,509.00
2023-04-18T04:20:25.249Z,511.00
2023-04-18T04:21:24.962Z,507.00
2023-04-18T04:22:24.973Z,510.00
2023-04-18T04:23:25.041Z,507.00
2023-04-18T04:24:25.073Z,506.00
2023-04-18T04:25:25.093Z,508.00
2023-04-18T04:26:25.116Z,511.00
2023-04-18T04:27:25.140Z,502.00
2023-04-18T04:28:25.165Z,511.00
2023-04-18T04:29:25.212Z,505.00
2023-04-18T04:30:25.230Z,503.00
2023-04-18T04:31:25.312Z,509.00
2023-04-18T04:32:25.524Z,508.00
2023-04-18T04:33:25.457Z,506.00
2023-04-18T04:34:25.358Z,511.00
2023-04-18T04:35:25.446Z,508.00
2023-04-18T04:36:25.497Z,504.00
2023-04-18T04:37:25.513Z,506.00
2023-04-18T04:38:25.545Z,505.00
2023-04-18T04:39:25.535Z,507.00
2023-04-18T04:40:25.579Z,505.00
2023-04-18T04:41:25.604Z,505.00
2023-04-18T04:42:25.606Z,505.00
2023-04-18T04:43:25.682Z,509.00
2023-04-18T04:44:25.714Z,502.00
2023-04-18T04:45:25.726Z,506.00
2023-04-18T04:46:25.828Z,508.00
2023-04-18T04:47:25.819Z,508.00
2023-04-18T04:48:25.812Z,509.00
2023-04-18T04:49:26.739Z,506.00
2023-04-18T04:50:25.902Z,507.00
2023-04-18T04:51:25.965Z,506.00
2023-04-18T04:52:26.005Z,503.00
2023-04-18T04:53:26.011Z,502.00
2023-04-18T04:54:26.014Z,504.00
2023-04-18T04:55:26.049Z,512.00
2023-04-18T04:56:26.107Z,509.00
2023-04-18T04:57:26.142Z,504.00
2023-04-18T04:58:26.157Z,503.00
2023-04-18T04:59:26.219Z,509.00
2023-04-18T05:00:26.260Z,508.00
2023-04-18T05:01:26.320Z,509.00
2023-04-18T05:02:26.479Z,507.00
2023-04-18T05:03:26.480Z,511.00
2023-04-18T05:04:26.608Z,511.00
2023-04-18T05:05:26.390Z,510.00
2023-04-18T05:06:26.454Z,502.00
2023-04-18T05:07:26.462Z,504.00
2023-04-18T05:08:26.506Z,504.00
2023-04-18T05:09:26.540Z,504.00
2023-04-18T05:10:26.564Z,508.00
2023-04-18T05:11:26.583Z,503.00
2023-04-18T05:12:26.823Z,507.00
2023-04-18T05:13:26.720Z,502.00
2023-04-18T05:14:26.682Z,502.00
2023-04-18T05:15:26.764Z,501.00
2023-04-18T05:16:26.785Z,502.00
2023-04-18T05:17:26.788Z,501.00
2023-04-18T05:18:26.866Z,503.00
2023-04-18T05:19:26.896Z,504.00
2023-04-18T05:20:26.918Z,506.00
2023-04-18T05:21:26.922Z,503.00
2023-04-18T05:22:26.940Z,501.00
2023-04-18T05:23:27.241Z,501.00
2023-04-18T05:24:27.108Z,504.00
2023-04-18T05:25:27.098Z,505.00
2023-04-18T05:26:27.755Z,506.00
2023-04-18T05:27:27.211Z,509.00
2023-04-18T05:28:27.227Z,506.00
2023-04-18T05:29:27.209Z,501.00
2023-04-18T05:30:27.306Z,501.00
2023-04-18T05:31:27.394Z,500.00
2023-04-18T05:32:27.322Z,502.00
2023-04-18T05:33:27.406Z,507.00
2023-04-18T05:34:27.407Z,511.00
2023-04-18T05:35:27.423Z,504.00
2023-04-18T05:36:27.389Z,508.00
2023-04-18T05:37:27.426Z,509.00
2023-04-18T05:38:27.426Z,511.00
2023-04-18T05:39:27.442Z,513.00
2023-04-18T05:40:27.754Z,521.00
2023-04-18T05:41:27.445Z,528.00
2023-04-18T05:42:27.471Z,534.00
2023-04-18T05:43:27.772Z,539.00
2023-04-18T05:44:27.571Z,545.00
2023-04-18T05:45:27.781Z,556.00
2023-04-18T05:46:28.307Z,565.00
2023-04-18T05:47:27.705Z,577.00
2023-04-18T05:48:27.769Z,578.00
2023-04-18T05:49:27.809Z,577.00
2023-04-18T05:50:28.297Z,589.00
2023-04-18T05:51:27.949Z,597.00
2023-04-18T05:52:27.986Z,594.00
2023-04-18T05:53:28.342Z,602.00
2023-04-18T05:54:28.083Z,603.00
2023-04-18T05:55:28.171Z,616.00
2023-04-18T05:56:28.206Z,617.00
2023-04-18T05:57:28.237Z,618.00
2023-04-18T05:58:28.804Z,625.00
2023-04-18T05:59:28.323Z,627.00
2023-04-18T06:00:28.369Z,631.00
2023-04-18T06:01:28.436Z,634.00
2023-04-18T06:02:28.608Z,648.00
2023-04-18T06:03:28.605Z,646.00
2023-04-18T06:04:28.676Z,652.00
2023-04-18T06:05:28.868Z,654.00
2023-04-18T06:06:28.586Z,657.00
2023-04-18T06:07:28.593Z,660.00
2023-04-18T06:08:28.641Z,662.00
2023-04-18T06:09:28.647Z,671.00
2023-04-18T06:10:28.673Z,672.00
2023-04-18T06:11:28.698Z,674.00
2023-04-18T06:12:28.695Z,682.00
2023-04-18T06:13:28.767Z,691.00
2023-04-18T06:14:28.731Z,692.00
2023-04-18T06:15:28.745Z,702.00
2023-04-18T06:16:28.770Z,707.00
2023-04-18T06:17:28.791Z,729.00
2023-04-18T06:18:28.800Z,808.00
2023-04-18T06:19:28.816Z,815.00
2023-04-18T06:20:28.890Z,781.00
2023-04-18T06:21:28.838Z,791.00
2023-04-18T06:22:28.853Z,861.00
2023-04-18T06:23:28.853Z,828.00
2023-04-18T06:24:31.161Z,818.00
2023-04-18T06:25:28.932Z,816.00
2023-04-18T06:26:29.046Z,811.00
2023-04-18T06:27:31.613Z,793.00
2023-04-18T06:28:28.895Z,796.00
2023-04-18T06:29:28.942Z,792.00
2023-04-18T06:30:28.868Z,779.00
2023-04-18T06:31:28.942Z,766.00
2023-04-18T06:32:28.900Z,778.00
2023-04-18T06:33:29.050Z,773.00
2023-04-18T06:34:28.921Z,775.00
2023-04-18T06:35:28.861Z,745.00
2023-04-18T06:36:28.837Z,760.00
2023-04-18T06:37:28.836Z,787.00
2023-04-18T06:38:29.310Z,773.00
2023-04-18T06:39:28.990Z,860.00
2023-04-18T06:40:29.289Z,896.00
2023-04-18T06:41:28.772Z,970.00
2023-04-18T06:42:28.825Z,948.00
2023-04-18T06:43:28.771Z,955.00
2023-04-18T06:44:31.321Z,931.00
2023-04-18T06:45:29.322Z,932.00
2023-04-18T06:46:29.000Z,934.00
2023-04-18T06:47:28.927Z,908.00
2023-04-18T06:48:28.928Z,896.00
2023-04-18T06:49:28.958Z,912.00
2023-04-18T06:50:29.440Z,873.00
2023-04-18T06:51:28.945Z,868.00
2023-04-18T06:52:28.957Z,877.00
2023-04-18T06:53:28.925Z,874.00
2023-04-18T06:54:28.944Z,815.00
2023-04-18T06:55:28.940Z,836.00
2023-04-18T06:56:28.939Z,817.00
2023-04-18T06:57:28.944Z,806.00
2023-04-18T06:58:28.949Z,814.00
2023-04-18T06:59:28.944Z,872.00
2023-04-18T07:00:29.476Z,913.00
2023-04-18T07:01:29.054Z,875.00
2023-04-18T07:02:29.037Z,919.00
2023-04-18T07:03:29.837Z,896.00
2023-04-18T07:04:28.990Z,896.00
2023-04-18T07:05:29.282Z,923.00
2023-04-18T07:06:28.964Z,919.00
2023-04-18T07:07:28.970Z,935.00
2023-04-18T07:08:28.965Z,914.00
2023-04-18T07:09:28.953Z,913.00
2023-04-18T07:10:29.041Z,908.00
2023-04-18T07:11:28.941Z,911.00
2023-04-18T07:12:28.976Z,920.00
2023-04-18T07:13:28.997Z,879.00
2023-04-18T07:14:28.977Z,904.00
2023-04-18T07:15:28.963Z,883.00
2023-04-18T07:16:29.074Z,885.00
2023-04-18T07:17:29.068Z,893.00
2023-04-18T07:18:37.241Z,846.00
2023-04-18T07:19:29.992Z,848.00
2023-04-18T07:20:29.282Z,848.00
2023-04-18T07:21:28.947Z,840.00
2023-04-18T07:22:28.950Z,851.00
2023-04-18T07:23:28.941Z,902.00
2023-04-18T07:24:28.965Z,867.00
2023-04-18T07:25:28.920Z,870.00
2023-04-18T07:26:28.912Z,855.00
2023-04-18T07:27:28.890Z,875.00
2023-04-18T07:28:28.911Z,810.00
2023-04-18T07:29:28.879Z,850.00
2023-04-18T07:30:28.876Z,902.00
2023-04-18T07:31:28.977Z,874.00
2023-04-18T07:32:28.913Z,894.00
2023-04-18T07:33:28.872Z,880.00
2023-04-18T07:34:29.327Z,907.00
2023-04-18T07:35:28.839Z,911.00
2023-04-18T07:36:28.869Z,929.00
2023-04-18T07:37:28.862Z,912.00
2023-04-18T07:38:28.850Z,893.00
2023-04-18T07:39:28.897Z,879.00
2023-04-18T07:40:28.866Z,915.00
2023-04-18T07:41:28.912Z,919.00
2023-04-18T07:42:28.960Z,892.00
2023-04-18T07:43:28.940Z,942.00
2023-04-18T07:44:29.060Z,951.00
2023-04-18T07:45:29.112Z,969.00
2023-04-18T07:46:29.133Z,936.00
2023-04-18T07:47:31.214Z,1014.00
2023-04-18T07:48:29.102Z,958.00
2023-04-18T07:49:29.116Z,946.00
2023-04-18T07:50:29.315Z,925.00
2023-04-18T07:51:29.084Z,868.00
2023-04-18T07:52:29.280Z,860.00
2023-04-18T07:53:29.076Z,882.00
2023-04-18T07:54:29.091Z,900.00
2023-04-18T07:55:29.324Z,834.00
2023-04-18T07:56:29.076Z,778.00
2023-04-18T07:57:29.093Z,755.00
2023-04-18T07:58:29.056Z,755.00
2023-04-18T07:59:29.314Z,719.00
2023-04-18T08:00:29.864Z,750.00
2023-04-18T08:01:29.011Z,689.00
2023-04-18T08:02:29.135Z,661.00
2023-04-18T08:03:29.189Z,654.00
2023-04-18T08:04:30.396Z,677.00
2023-04-18T08:05:29.394Z,664.00
2023-04-18T08:06:29.004Z,650.00
2023-04-18T08:07:28.989Z,663.00
2023-04-18T08:08:29.182Z,637.00
2023-04-18T08:09:28.961Z,637.00
2023-04-18T08:10:28.967Z,633.00
2023-04-18T08:11:28.941Z,626.00
2023-04-18T08:12:28.935Z,587.00
2023-04-18T08:13:28.918Z,607.00
2023-04-18T08:14:28.924Z,611.00
2023-04-18T08:15:28.899Z,604.00
2023-04-18T08:16:28.932Z,456.00
2023-04-18T08:17:28.989Z,559.00
2023-04-18T08:18:29.021Z,554.00
2023-04-18T08:19:29.081Z,526.00
2023-04-18T08:20:29.108Z,564.00
2023-04-18T08:21:29.518Z,582.00
2023-04-18T08:22:29.217Z,650.00
2023-04-18T08:23:29.259Z,715.00
2023-04-18T08:24:29.375Z,681.00
2023-04-18T08:25:29.342Z,660.00
2023-04-18T08:26:29.880Z,661.00
2023-04-18T08:27:29.416Z,652.00
2023-04-18T08:28:29.451Z,656.00
2023-04-18T08:29:29.518Z,647.00
2023-04-18T08:30:29.592Z,648.00
2023-04-18T08:31:29.851Z,628.00
2023-04-18T08:32:29.827Z,632.00
2023-04-18T08:33:29.699Z,631.00
2023-04-18T08:34:29.857Z,619.00
2023-04-18T08:35:29.843Z,609.00
2023-04-18T08:36:29.869Z,605.00
2023-04-18T08:37:29.945Z,604.00
2023-04-18T08:38:29.994Z,602.00
2023-04-18T08:39:30.044Z,593.00
2023-04-18T08:40:30.233Z,596.00
2023-04-18T08:41:30.318Z,621.00
2023-04-18T08:42:30.189Z,644.00
2023-04-18T08:43:30.234Z,643.00
2023-04-18T08:44:30.301Z,649.00
2023-04-18T08:45:30.429Z,657.00
2023-04-18T08:46:30.829Z,658.00
2023-04-18T08:47:30.520Z,660.00
2023-04-18T08:48:30.500Z,653.00
2023-04-18T08:49:30.555Z,658.00
2023-04-18T08:50:30.630Z,677.00
2023-04-18T08:51:30.892Z,678.00
2023-04-18T08:52:30.630Z,695.00
2023-04-18T08:53:30.662Z,712.00
2023-04-18T08:54:30.690Z,725.00
2023-04-18T08:55:30.846Z,712.00
2023-04-18T08:56:30.879Z,734.00
2023-04-18T08:57:30.737Z,742.00
2023-04-18T08:58:30.794Z,757.00
2023-04-18T08:59:30.777Z,793.00
2023-04-18T09:00:30.817Z,824.00
2023-04-18T09:01:30.876Z,839.00
2023-04-18T09:02:30.919Z,880.00
2023-04-18T09:03:30.867Z,912.00
2023-04-18T09:04:30.880Z,936.00
2023-04-18T09:05:30.963Z,963.00
2023-04-18T09:06:30.916Z,941.00
2023-04-18T09:07:30.909Z,932.00
2023-04-18T09:08:30.911Z,922.00
2023-04-18T09:09:30.927Z,912.00
2023-04-18T09:10:31.038Z,890.00
2023-04-18T09:11:30.940Z,914.00
2023-04-18T09:12:30.924Z,919.00
2023-04-18T09:13:30.962Z,928.00
2023-04-18T09:14:30.965Z,935.00
2023-04-18T09:15:30.998Z,938.00
2023-04-18T09:16:31.002Z,907.00
2023-04-18T09:17:30.990Z,926.00
2023-04-18T09:18:30.932Z,813.00
2023-04-18T09:19:30.940Z,861.00
2023-04-18T09:20:31.444Z,906.00
2023-04-18T09:21:31.361Z,942.00
2023-04-18T09:22:30.954Z,976.00
2023-04-18T09:23:30.927Z,1000.00
2023-04-18T09:24:30.917Z,996.00
2023-04-18T09:25:31.047Z,984.00
2023-04-18T09:26:30.966Z,996.00
2023-04-18T09:27:30.922Z,1014.00
2023-04-18T09:28:30.956Z,973.00
2023-04-18T09:29:31.070Z,957.00
2023-04-18T09:30:30.956Z,1010.00
2023-04-18T09:31:31.072Z,1019.00
2023-04-18T09:32:31.061Z,987.00
2023-04-18T09:33:32.893Z,960.00
2023-04-18T09:34:31.010Z,802.00
2023-04-18T09:35:31.351Z,639.00
2023-04-18T09:36:31.073Z,712.00
2023-04-18T09:37:30.952Z,642.00
2023-04-18T09:38:30.980Z,664.00
2023-04-18T09:39:31.026Z,649.00
2023-04-18T09:40:31.389Z,652.00
2023-04-18T09:41:31.086Z,635.00
2023-04-18T09:42:31.097Z,616.00
2023-04-18T09:43:31.146Z,634.00
2023-04-18T09:44:31.132Z,645.00
2023-04-18T09:45:31.118Z,637.00
2023-04-18T09:46:31.219Z,498.00
2023-04-18T09:47:31.205Z,575.00
2023-04-18T09:48:31.227Z,400.00
2023-04-18T09:49:31.203Z,400.00
2023-04-18T09:50:31.485Z,505.00
2023-04-18T09:51:31.378Z,576.00
2023-04-18T09:52:31.417Z,594.00
2023-04-18T09:53:31.416Z,622.00
2023-04-18T09:54:31.493Z,400.00
2023-04-18T09:55:31.533Z,519.00
2023-04-18T09:56:31.605Z,579.00
2023-04-18T09:57:31.647Z,592.00
2023-04-18T09:58:31.637Z,554.00
2023-04-18T09:59:31.620Z,597.00
2023-04-18T10:00:31.645Z,619.00
2023-04-18T10:01:31.651Z,609.00
2023-04-18T10:02:31.683Z,566.00
2023-04-18T10:03:31.754Z,607.00
2023-04-18T10:04:31.779Z,615.00
2023-04-18T10:05:31.669Z,529.00
2023-04-18T10:06:31.658Z,615.00
2023-04-18T10:07:31.712Z,620.00
2023-04-18T10:08:32.715Z,594.00
2023-04-18T10:09:31.655Z,623.00
2023-04-18T10:10:31.674Z,597.00
2023-04-18T10:11:31.649Z,555.00
2023-04-18T10:12:31.619Z,604.00
2023-04-18T10:13:31.708Z,453.00
2023-04-18T10:14:31.702Z,628.00
2023-04-18T10:15:31.686Z,541.00
2023-04-18T10:16:32.543Z,610.00
2023-04-18T10:17:31.727Z,649.00
2023-04-18T10:18:31.684Z,624.00
2023-04-18T10:19:31.650Z,664.00
2023-04-18T10:20:31.650Z,723.00
2023-04-18T10:21:31.678Z,724.00
2023-04-18T10:22:31.679Z,655.00
2023-04-18T10:23:31.669Z,722.00
2023-04-18T10:24:31.672Z,709.00
2023-04-18T10:25:31.677Z,721.00
2023-04-18T10:26:32.493Z,694.00
2023-04-18T10:27:31.656Z,757.00
2023-04-18T10:28:31.641Z,754.00
2023-04-18T10:29:31.668Z,804.00
2023-04-18T10:30:31.643Z,844.00
2023-04-18T10:31:31.915Z,862.00
2023-04-18T10:32:31.699Z,914.00
2023-04-18T10:33:32.546Z,922.00
2023-04-18T10:34:32.398Z,961.00
2023-04-18T10:35:31.831Z,1006.00
2023-04-18T10:36:31.900Z,1040.00
2023-04-18T10:37:31.945Z,1074.00
2023-04-18T10:38:31.997Z,1105.00
2023-04-18T10:39:32.014Z,1142.00
2023-04-18T10:40:32.035Z,1171.00
2023-04-18T10:41:32.417Z,1215.00
2023-04-18T10:42:32.136Z,1272.00
2023-04-18T10:43:32.200Z,1282.00
2023-04-18T10:44:32.191Z,1326.00
2023-04-18T10:45:32.201Z,1360.00
2023-04-18T10:46:33.051Z,1382.00
2023-04-18T10:47:32.526Z,1416.00
2023-04-18T10:48:32.292Z,1434.00
2023-04-18T10:49:32.967Z,1450.00
2023-04-18T10:50:32.348Z,1485.00
2023-04-18T10:51:32.392Z,1512.00
2023-04-18T10:52:32.426Z,1559.00
2023-04-18T10:53:32.413Z,1565.00
2023-04-18T10:54:32.446Z,1585.00
2023-04-18T10:55:32.461Z,1598.00
2023-04-18T10:56:32.513Z,1604.00
2023-04-18T10:57:32.530Z,1594.00
2023-04-18T10:58:32.533Z,1607.00
2023-04-18T10:59:32.553Z,1613.00
2023-04-18T11:00:32.686Z,1686.00
2023-04-18T11:01:33.120Z,1669.00
2023-04-18T11:02:32.745Z,1692.00
2023-04-18T11:03:32.662Z,1728.00
2023-04-18T11:04:32.716Z,1757.00
2023-04-18T11:05:32.688Z,1783.00
2023-04-18T11:06:32.733Z,1790.00
2023-04-18T11:07:32.717Z,1817.00
2023-04-18T11:08:32.721Z,1831.00
2023-04-18T11:09:32.792Z,1847.00
2023-04-18T11:10:32.766Z,1850.00
2023-04-18T11:11:32.778Z,1857.00
2023-04-18T11:12:32.808Z,1879.00
2023-04-18T11:13:32.801Z,1914.00
2023-04-18T11:14:32.798Z,1928.00
2023-04-18T11:15:32.854Z,1944.00
2023-04-18T11:16:32.878Z,1959.00
2023-04-18T11:17:32.973Z,1961.00
2023-04-18T11:18:32.874Z,1998.00
2023-04-18T11:19:32.814Z,1972.00
2023-04-18T11:20:32.856Z,1970.00
2023-04-18T11:21:32.897Z,1948.00
2023-04-18T11:22:32.889Z,1898.00
2023-04-18T11:23:32.887Z,1871.00
2023-04-18T11:24:32.919Z,1848.00
2023-04-18T11:25:33.890Z,1819.00
2023-04-18T11:26:33.377Z,1802.00
2023-04-18T11:27:33.419Z,1779.00
2023-04-18T11:28:33.057Z,1668.00
2023-04-18T11:29:33.050Z,1694.00
2023-04-18T11:30:33.067Z,1658.00
2023-04-18T11:31:33.183Z,1630.00
2023-04-18T11:32:33.211Z,1638.00
2023-04-18T11:33:33.199Z,1614.00
2023-04-18T11:34:33.217Z,1578.00
2023-04-18T11:35:33.218Z,1544.00
2023-04-18T11:36:33.225Z,1559.00
2023-04-18T11:37:33.283Z,1518.00
2023-04-18T11:38:33.282Z,1521.00
2023-04-18T11:39:33.361Z,1511.00
2023-04-18T11:40:33.353Z,1505.00
2023-04-18T11:41:33.405Z,1484.00
2023-04-18T11:42:33.441Z,1517.00
2023-04-18T11:43:33.489Z,1523.00
2023-04-18T11:44:35.621Z,1428.00
2023-04-18T11:45:33.500Z,1400.00
2023-04-18T11:46:33.610Z,1313.00
2023-04-18T11:47:33.513Z,1247.00
2023-04-18T11:48:33.479Z,1314.00
2023-04-18T11:49:33.497Z,1074.00
2023-04-18T11:50:33.465Z,587.00
2023-04-18T11:51:33.451Z,643.00
2023-04-18T11:52:33.458Z,656.00
2023-04-18T11:53:33.442Z,704.00
2023-04-18T11:54:33.436Z,560.00
2023-04-18T11:55:33.439Z,725.00
2023-04-18T11:56:35.296Z,608.00
2023-04-18T11:57:33.424Z,425.00
2023-04-18T11:58:33.407Z,400.00
2023-04-18T11:59:33.416Z,400.00
2023-04-18T12:00:33.408Z,400.00
2023-04-18T12:01:33.393Z,400.00
2023-04-18T12:02:33.464Z,400.00
2023-04-18T12:03:33.469Z,489.00
2023-04-18T12:04:33.558Z,447.00
2023-04-18T12:05:33.618Z,612.00
2023-04-18T12:06:33.380Z,639.00
2023-04-18T12:07:33.382Z,412.00
2023-04-18T12:08:33.349Z,488.00
2023-04-18T12:09:33.359Z,427.00
2023-04-18T12:10:33.342Z,501.00
2023-04-18T12:11:33.337Z,607.00
2023-04-18T12:12:33.320Z,417.00
2023-04-18T12:13:33.340Z,471.00
2023-04-18T12:14:33.340Z,587.00
2023-04-18T12:15:33.357Z,453.00
2023-04-18T12:16:33.538Z,602.00
2023-04-18T12:17:33.326Z,623.00
2023-04-18T12:18:33.283Z,957.00
2023-04-18T12:19:33.308Z,646.00
2023-04-18T12:20:33.281Z,517.00
2023-04-18T12:21:33.272Z,455.00
2023-04-18T12:22:33.422Z,505.00
2023-04-18T12:23:35.916Z,681.00
2023-04-18T12:24:33.435Z,692.00
2023-04-18T12:25:33.931Z,764.00
2023-04-18T12:26:33.922Z,694.00
2023-04-18T12:27:33.429Z,600.00